Last 7 Days

Pierce College

10 Minute Data | America/Los_Angeles
as of 3/3/21 4:16 PM PST
Date & Time Temp Max (°F) Temp Min (°F) RH (%) Dew Pt (°F) Latest Rain (In) Seasonal Rainfall (In) Soil Temp (°F) Soil Moist (%) Pressure (mb) (mb) Wind Spd (mph) Wind Dir (°) Wind Gust (mph) Wind Gst Dir (°) Leaf Wet Raw (mV) Net Radiation (W/m²) Evap Pan Wind Spd (mph) Evap Pan WindRun (miles) Evap Pan H2O Temp (°F) Evap Pan Level (In)
3/3/21 - 1610 55.6 55.0 51 37.6 0.00 4.10 58.2 42.9 1,012.4 3.5 ESE | 103 7.2 SE | 143 266 188 1.7 10.8 58.1 3.7
3/3/21 - 1600 55.7 54.8 52 37.8 0.00 4.10 58.2 42.9 1,012.3 2.3 ESE | 113 8.5 E | 99 267 206 1.6 10.5 58.0 3.7
3/3/21 - 1550 54.8 54.3 53 37.8 0.00 4.10 58.3 42.9 1,012.2 2.2 E | 86 5.1 E | 100 267 135 1.1 10.2 57.2 3.7
3/3/21 - 1540 54.7 54.0 53 38.0 0.00 4.10 58.2 42.9 1,012.1 2.3 ENE | 64 6.7 ENE | 73 266 92 1.0 10.1 57.8 3.7
3/3/21 - 1530 54.7 53.9 53 37.7 0.00 4.10 58.3 42.9 1,012.2 3.4 E | 99 8.8 E | 87 267 144 1.3 9.9 58.2 3.7
3/3/21 - 1520 54.4 54.0 54 37.7 0.00 4.10 58.3 42.9 1,012.2 3.0 ENE | 73 6.4 ENE | 58 266 178 1.5 9.7 58.9 3.7
3/3/21 - 1510 54.4 54.0 53 37.6 0.00 4.10 58.4 42.9 1,012.2 2.8 ENE | 69 6.7 ESE | 104 266 146 1.3 9.4 59.6 3.7
3/3/21 - 1500 54.8 53.9 53 37.5 0.00 4.10 58.4 42.9 1,012.1 2.7 E | 85 7.7 ENE | 76 266 179 1.2 9.2 59.8 3.7
3/3/21 - 1450 54.2 53.5 53 37.2 0.00 4.10 58.4 42.9 1,012.1 4.2 E | 79 8.3 ESE | 112 266 243 2.0 9.0 58.9 3.7
3/3/21 - 1440 54.2 53.6 53 37.2 0.00 4.10 58.3 42.9 1,012.0 3.4 ENE | 76 9.0 NE | 42 266 272 1.8 8.7 58.8 3.7
3/3/21 - 1430 53.7 53.1 54 37.0 0.00 4.10 58.4 42.9 1,012.0 5.8 ESE | 104 12.2 SE | 132 266 353 3.2 8.4 58.7 3.7
3/3/21 - 1420 53.9 53.0 54 37.1 0.00 4.10 58.4 42.9 1,011.9 4.6 E | 93 13.1 E | 97 266 361 2.6 7.8 58.7 3.7
3/3/21 - 1410 53.2 51.8 56 37.2 0.00 4.10 58.5 42.9 1,011.9 3.9 E | 89 8.5 ESE | 114 266 384 2.2 7.4 58.7 3.7
3/3/21 - 1400 51.9 50.7 59 37.4 0.00 4.10 58.3 42.9 1,011.9 3.5 E | 92 7.6 N | 351 267 306 2.0 7.0 57.3 3.7
3/3/21 - 1350 50.7 50.2 60 36.9 0.00 4.10 58.4 42.9 1,011.9 4.6 ESE | 104 8.7 SE | 131 267 235 2.7 6.7 56.1 3.7
3/3/21 - 1340 50.6 49.7 61 37.2 0.00 4.10 58.5 42.9 1,011.9 4.0 E | 95 10.9 ESE | 104 268 212 2.2 6.3 56.0 3.7
3/3/21 - 1330 50.0 49.5 63 37.8 0.00 4.10 58.5 42.9 1,011.9 4.1 E | 94 8.8 ESE | 120 268 224 2.6 5.9 55.8 3.7
3/3/21 - 1320 49.8 49.3 67 39.1 0.00 4.10 58.5 42.9 1,011.8 4.2 ENE | 75 9.4 S | 171 268 232 1.7 5.5 55.6 3.7
3/3/21 - 1310 49.6 49.0 69 39.4 0.00 4.10 58.5 42.9 1,011.8 3.8 E | 79 9.6 ENE | 66 269 212 2.0 5.2 55.8 3.7
3/3/21 - 1300 49.5 48.2 71 39.8 0.00 4.10 58.5 42.9 1,011.9 3.2 ENE | 58 6.6 E | 98 269 216 1.0 4.9 54.8 3.7
3/3/21 - 1250 48.5 47.9 71 39.4 0.00 4.10 58.6 42.9 1,012.0 4.9 ENE | 68 11.1 ESE | 106 269 197 1.9 4.7 54.1 3.7
3/3/21 - 1240 48.5 48.0 75 40.8 0.00 4.10 58.6 42.9 1,012.1 3.5 ENE | 57 7.0 NE | 36 269 195 1.5 4.4 54.4 3.7
3/3/21 - 1230 48.2 47.9 77 41.2 0.00 4.10 58.6 42.9 1,012.2 3.6 NE | 51 6.3 E | 86 271 154 1.0 4.1 54.3 3.7
3/3/21 - 1220 48.4 47.9 79 42.0 0.00 4.10 58.7 42.9 1,012.1 3.3 NE | 49 7.6 ENE | 57 280 177 1.1 4.0 54.2 3.7
3/3/21 - 1210 48.0 47.4 79 41.5 0.00 4.10 58.7 42.9 1,012.1 3.8 NE | 42 9.3 NNE | 18 296 161 0.9 3.8 53.0 3.7
3/3/21 - 1200 48.1 47.8 77 40.9 0.00 4.10 58.7 42.9 1,012.5 3.7 NE | 53 6.7 NE | 34 302 162 1.2 3.6 52.8 3.7
3/3/21 - 1150 48.0 47.5 74 39.8 0.00 4.10 58.8 42.9 1,012.7 4.5 E | 79 9.6 SSE | 150 305 167 2.2 3.4 52.5 3.7
3/3/21 - 1140 48.1 47.7 77 41.0 0.00 4.10 58.8 42.8 1,012.9 2.9 ESE | 109 7.0 ESE | 108 334 154 1.6 3.0 53.3 3.7
3/3/21 - 1130 48.7 47.8 77 41.3 0.00 4.10 58.8 42.8 1,013.0 3.2 ESE | 117 7.8 SE | 132 429 128 1.6 2.8 52.8 3.7
3/3/21 - 1120 49.2 48.6 75 41.2 0.02 4.10 58.7 42.8 1,013.0 3.0 E | 94 6.1 SE | 135 466 110 1.3 2.5 53.8 3.7
3/3/21 - 1110 49.4 49.0 72 40.5 0.00 4.08 58.8 42.8 1,012.8 3.4 SE | 134 6.9 SSE | 156 425 155 2.0 2.3 53.7 3.7
3/3/21 - 1100 50.8 49.3 65 38.7 0.00 4.08 58.7 42.9 1,012.8 3.8 SE | 146 6.6 S | 183 389 120 1.7 1.9 53.5 3.7
3/3/21 - 1050 50.8 49.8 62 37.5 0.00 4.08 58.7 43.0 1,012.6 2.2 SE | 126 6.4 SSW | 200 335 109 1.1 1.6 52.5 3.7
3/3/21 - 1040 50.3 49.8 64 38.2 0.00 4.08 58.7 43.0 1,012.6 2.8 E | 92 6.8 E | 82 323 88 1.5 1.5 52.4 3.7
3/3/21 - 1030 50.6 49.9 61 37.1 0.00 4.08 58.7 42.9 1,012.3 1.8 ESE | 113 3.7 E | 82 329 89 0.9 1.2 53.3 3.7
3/3/21 - 1020 51.8 50.1 68 40.6 0.00 4.08 58.8 42.9 1,012.4 2.2 ESE | 107 8.7 ENE | 70 350 58 1.4 1.1 54.9 3.7
3/3/21 - 1010 51.7 51.3 73 43.1 0.00 4.08 58.8 43.0 1,012.3 1.5 ENE | 65 2.9 ENE | 68 296 28 0.3 0.8 56.4 3.7
3/3/21 - 1000 51.9 51.5 70 42.4 0.00 4.08 58.8 43.0 1,012.4 1.6 ENE | 60 4.0 NE | 49 268 32 0.3 0.8 57.1 3.7
3/3/21 - 0950 51.7 51.1 67 40.6 0.00 4.08 58.8 43.0 1,012.4 0.8 NE | 50 2.3 ENE | 64 267 42 0.1 0.7 57.5 3.7
3/3/21 - 0940 51.1 50.4 65 39.6 0.00 4.08 58.8 43.0 1,012.3 0.8 NE | 47 2.0 ENE | 60 267 64 0.2 0.7 56.5 3.7
3/3/21 - 0930 50.6 49.8 63 38.4 0.00 4.08 58.8 43.0 1,012.2 0.7 NNE | 15 2.9 NNE | 20 267 69 0.1 0.7 54.8 3.7
3/3/21 - 0920 50.1 49.1 60 36.4 0.00 4.08 58.8 43.1 1,012.0 0.5 NNE | 31 1.5 NE | 46 266 53 0.1 0.7 53.2 3.7
3/3/21 - 0910 49.2 48.6 57 34.1 0.00 4.08 58.7 43.0 1,011.8 1.0 NNE | 32 2.4 NE | 35 266 40 0.0 0.6 51.9 3.7
3/3/21 - 0900 48.7 48.3 53 32.0 0.00 4.08 58.8 43.1 1,011.8 0.3 NNE | 30 1.2 NE | 50 266 28 0.0 0.6 51.5 3.7
3/3/21 - 0850 48.5 48.0 50 30.5 0.00 4.08 58.8 43.1 1,011.8 0.2 NNW | 340 1.5 WSW | 251 266 30 0.0 0.6 51.1 3.7
3/3/21 - 0840 48.1 47.3 48 29.3 0.00 4.08 58.8 43.1 1,011.6 0.3 W | 276 2.4 WNW | 285 266 35 0.1 0.6 50.4 3.7
3/3/21 - 0830 47.5 46.9 47 28.1 0.00 4.08 58.9 43.1 1,011.5 0.8 WNW | 299 4.1 WSW | 255 266 29 0.6 0.6 49.9 3.7
3/3/21 - 0820 47.1 46.4 47 27.8 0.00 4.08 58.8 43.1 1,011.4 2.6 WSW | 252 5.4 WSW | 255 266 28 1.6 0.5 49.7 3.7
3/3/21 - 0810 46.6 46.1 46 26.9 0.00 4.08 58.9 43.1 1,011.1 1.2 NW | 306 2.6 WSW | 252 266 37 0.5 0.2 49.3 3.7
3/3/21 - 0800 46.2 45.7 46 26.6 0.00 4.08 58.9 43.1 1,011.0 0.5 NE | 38 2.1 NE | 42 266 34 0.1 0.2 49.2 3.7
3/3/21 - 0750 46.1 45.0 47 26.6 0.00 4.08 58.9 43.1 1,011.0 1.2 N | 11 3.0 N | 10 266 52 0.0 0.2 48.4 3.7
3/3/21 - 0740 45.2 42.1 52 27.2 0.00 4.08 58.9 43.1 1,011.1 0.8 ENE | 60 2.5 NNE | 32 266 125 0.2 0.2 44.8 3.7
3/3/21 - 0730 42.2 39.6 57 26.8 0.00 4.08 58.9 43.1 1,010.9 0.6 NE | 41 1.6 WSW | 240 267 94 0.2 0.1 39.2 3.7
3/3/21 - 0720 39.6 38.2 60 26.0 0.00 4.08 59.0 43.2 1,010.7 0.1 ESE | 103 0.7 E | 92 267 42 0.0 0.1 34.6 3.7
3/3/21 - 0710 38.2 36.5 61 25.2 0.00 4.08 58.9 43.2 1,010.4 0.0 SSE | 156 0.5 SSE | 156 267 21 0.0 0.1 30.6 3.7
3/3/21 - 0700 36.6 35.5 62 24.4 0.00 4.08 58.9 43.2 1,010.3 0.1 S | 174 0.9 S | 174 267 14 0.0 0.1 26.6 3.7
3/3/21 - 0650 35.7 35.4 63 24.2 0.00 4.08 59.0 43.2 1,010.2 0.0 N | 0 0.0 S | 189 268 -22 0.0 0.1 24.6 3.7
3/3/21 - 0640 35.6 35.3 63 24.0 0.00 4.08 59.0 43.2 1,010.1 0.1 SSW | 204 0.7 SSW | 204 268 -48 0.0 0.1 24.4 3.7
3/3/21 - 0630 35.5 34.8 65 24.8 0.00 4.08 58.9 43.2 1,010.0 0.1 SSE | 160 0.9 SSE | 160 268 -52 0.0 0.1 24.3 3.7
3/3/21 - 0620 35.0 34.7 65 24.4 0.00 4.08 59.0 43.2 1,010.0 0.0 N | 0 0.0 S | 188 268 -38 0.0 0.1 23.2 3.7
3/3/21 - 0610 35.0 34.5 66 24.5 0.00 4.08 58.8 43.2 1,010.0 0.0 S | 188 0.4 S | 188 268 -51 0.1 0.1 22.4 3.7
3/3/21 - 0600 35.6 35.0 66 24.9 0.00 4.08 58.7 43.2 1,009.9 0.0 N | 0 0.0 S | 176 268 -60 0.0 0.1 22.5 3.7
3/3/21 - 0550 35.6 35.0 64 24.4 0.00 4.08 58.8 43.3 1,009.8 0.0 N | 0 0.0 S | 177 268 -60 0.0 0.1 22.9 3.7
3/3/21 - 0540 35.2 34.7 66 24.7 0.00 4.08 58.9 43.3 1,009.6 0.0 N | 0 0.0 S | 170 268 -59 0.1 0.1 23.2 3.7
3/3/21 - 0530 35.2 34.7 69 25.8 0.00 4.08 58.8 43.3 1,009.5 0.0 S | 170 0.5 S | 170 268 -58 0.0 0.1 23.1 3.7
3/3/21 - 0520 35.3 34.9 69 25.8 0.00 4.08 58.9 43.3 1,009.5 0.1 S | 169 0.8 S | 171 268 -57 0.0 0.1 22.8 3.7
3/3/21 - 0510 35.8 35.2 68 26.2 0.00 4.08 58.9 43.3 1,009.4 0.2 S | 170 0.9 SSE | 163 268 -59 0.0 0.1 22.7 3.7
3/3/21 - 0500 35.9 35.3 68 26.1 0.00 4.08 59.0 43.3 1,009.5 0.1 SSE | 151 0.5 SSE | 158 268 -60 0.0 0.1 22.9 3.7
3/3/21 - 0450 36.3 35.6 67 26.0 0.00 4.08 59.1 43.3 1,009.6 0.4 SSE | 152 0.9 SSE | 152 268 -58 0.0 0.1 23.1 3.7
3/3/21 - 0440 35.8 35.3 68 26.1 0.00 4.08 59.2 43.3 1,009.5 0.0 S | 178 0.7 S | 178 268 -58 0.0 0.1 23.1 3.7
3/3/21 - 0430 35.7 35.2 69 26.1 0.00 4.08 59.3 43.4 1,009.5 0.0 SE | 143 0.6 SE | 143 268 -60 0.0 0.1 23.1 3.7
3/3/21 - 0420 36.4 35.6 66 25.8 0.00 4.08 59.4 43.4 1,009.5 0.1 SSE | 147 0.7 SSE | 147 268 -60 0.0 0.1 23.3 3.7
3/3/21 - 0410 36.5 36.0 66 26.1 0.00 4.08 59.5 43.4 1,009.6 0.2 SSE | 151 0.8 SSE | 157 268 -60 0.0 0.1 23.5 3.7
3/3/21 - 0400 36.6 36.1 64 25.2 0.00 4.08 59.6 43.4 1,009.6 0.2 SSE | 149 0.9 SSE | 149 267 -60 0.0 0.1 23.7 3.7
3/3/21 - 0350 36.6 36.3 65 25.7 0.00 4.08 59.6 43.4 1,009.5 0.1 S | 186 0.8 S | 186 267 -60 0.0 0.1 23.9 3.7
3/3/21 - 0340 37.1 36.5 63 25.6 0.00 4.08 59.8 43.4 1,009.5 0.0 N | 0 0.0 SSW | 192 267 -61 0.0 0.1 24.3 3.7
3/3/21 - 0330 37.1 36.6 64 25.6 0.00 4.08 59.8 43.4 1,009.7 0.2 S | 185 0.8 SSE | 160 267 -60 0.0 0.1 24.5 3.7
3/3/21 - 0320 37.4 36.9 64 26.0 0.00 4.08 60.0 43.5 1,009.8 0.2 SSE | 148 1.0 SE | 146 267 -61 0.0 0.0 24.8 3.7
3/3/21 - 0310 37.2 36.8 65 26.3 0.00 4.08 60.3 43.5 1,009.8 0.3 SW | 230 0.7 WSW | 254 267 -61 0.0 0.0 25.5 3.7
3/3/21 - 0300 37.2 36.8 66 26.8 0.00 4.08 60.3 43.5 1,009.8 0.0 N | 0 0.0 SE | 134 267 -61 0.0 0.0 25.7 3.7
3/3/21 - 0250 37.9 37.1 65 26.7 0.00 4.08 60.1 43.5 1,009.9 0.0 N | 0 0.0 SE | 134 267 -61 0.0 0.0 25.7 3.7
3/3/21 - 0240 38.2 37.9 65 27.4 0.00 4.08 60.2 43.5 1,010.2 0.4 SE | 144 1.3 SE | 145 267 -62 0.0 0.0 25.7 3.7
3/3/21 - 0230 38.0 36.9 68 28.0 0.00 4.08 60.3 43.5 1,010.3 0.9 S | 171 1.4 SSE | 164 267 -62 0.1 0.0 25.5 3.7
3/3/21 - 0220 38.1 36.9 67 27.4 0.00 4.08 60.3 43.6 1,010.4 0.4 SSE | 162 1.2 SSE | 154 267 -61 0.0 0.0 25.6 3.7
3/3/21 - 0210 38.4 37.7 65 27.3 0.00 4.08 60.4 43.5 1,010.5 0.3 SSE | 168 1.2 S | 175 267 -61 0.0 0.0 25.6 3.7
3/3/21 - 0200 38.6 38.0 63 26.8 0.00 4.08 60.5 43.6 1,010.7 0.1 SSE | 157 0.7 SSE | 156 267 -62 0.0 0.0 25.8 3.7
3/3/21 - 0150 38.6 38.2 61 26.2 0.00 4.08 60.5 43.6 1,010.8 0.3 S | 179 0.8 S | 191 267 -62 0.0 0.0 26.0 3.7
3/3/21 - 0140 39.0 38.2 61 26.3 0.00 4.08 60.5 43.6 1,010.9 0.2 S | 183 0.6 S | 171 266 -62 0.0 0.0 26.2 3.7
3/3/21 - 0130 39.6 38.9 58 25.6 0.00 4.08 60.6 43.6 1,011.0 0.0 SSE | 154 0.5 SSE | 153 266 -62 0.0 0.0 26.4 3.7
3/3/21 - 0120 39.9 39.3 56 25.1 0.00 4.08 60.6 43.7 1,010.9 0.1 S | 170 0.7 S | 170 266 -62 0.0 0.0 26.6 3.7
3/3/21 - 0110 39.9 39.3 57 25.6 0.00 4.08 60.6 43.7 1,010.9 0.0 N | 0 0.0 ENE | 64 266 -63 0.0 0.0 26.8 3.7
3/3/21 - 0100 40.5 39.9 57 26.4 0.00 4.08 60.6 43.7 1,010.9 0.0 N | 0 0.0 SSE | 155 266 -63 0.0 0.0 27.0 3.7
3/3/21 - 0050 40.6 40.2 53 24.5 0.00 4.08 60.6 43.7 1,011.0 0.3 SSE | 147 0.8 SSE | 147 266 -63 0.0 0.0 27.0 3.7
3/3/21 - 0040 41.0 40.4 50 23.7 0.00 4.08 60.6 43.7 1,011.1 0.0 SSE | 160 0.2 SSE | 160 265 -63 0.0 0.0 27.1 3.7
3/3/21 - 0030 40.9 40.7 49 23.1 0.00 4.08 60.6 43.7 1,011.0 0.1 SSE | 159 0.8 SSE | 160 265 -62 0.0 0.0 27.1 3.7
3/3/21 - 0020 41.0 40.6 45 21.1 0.00 4.08 60.6 43.7 1,011.1 0.4 SSE | 153 0.9 SSE | 154 265 -63 0.0 0.0 27.3 3.7
3/3/21 - 0010 41.5 40.8 42 19.6 0.00 4.08 60.6 43.7 1,011.1 0.5 SSW | 201 1.5 SSW | 213 265 -64 0.2 0.0 27.6 3.7
3/3/21 - 0000 41.8 41.3 44 21.4 0.00 4.08 60.6 43.7 1,011.2 0.1 SSE | 149 0.7 SSE | 148 265 -65 0.0 17.1 27.7 3.7
3/2/21 - 2350 41.4 41.0 44 20.8 0.00 4.08 60.6 43.8 1,011.2 0.9 SSE | 165 1.7 SSE | 147 265 -65 0.0 17.1 27.8 3.7
3/2/21 - 2340 42.3 41.2 41 20.0 0.00 4.08 60.7 43.8 1,011.3 0.7 SSE | 157 1.2 SSE | 154 265 -65 0.0 17.1 28.0 3.7
3/2/21 - 2330 42.5 42.0 39 19.0 0.00 4.08 60.7 43.8 1,011.4 0.4 SSE | 163 0.9 SSE | 161 265 -65 0.0 17.1 28.4 3.7
3/2/21 - 2320 42.9 42.2 38 18.9 0.00 4.08 60.7 43.8 1,011.4 0.2 SSE | 154 0.9 SSE | 150 265 -66 0.0 17.1 28.7 3.7
3/2/21 - 2310 42.8 42.3 40 20.2 0.00 4.08 60.6 43.8 1,011.5 0.0 SSE | 166 0.7 SSE | 164 265 -67 0.0 17.1 29.0 3.7
3/2/21 - 2300 43.0 42.6 38 19.2 0.00 4.08 60.7 43.8 1,011.6 0.7 SSE | 159 1.2 SE | 145 265 -67 0.0 17.1 29.2 3.7
3/2/21 - 2250 43.5 42.7 37 18.7 0.00 4.08 60.7 43.8 1,011.7 0.8 S | 180 2.1 SSW | 194 265 -67 0.2 17.1 29.5 3.7
3/2/21 - 2240 43.9 43.5 35 17.8 0.00 4.08 60.7 43.8 1,011.8 0.9 S | 173 1.8 S | 189 265 -68 0.1 17.1 30.0 3.7
3/2/21 - 2230 44.8 43.7 34 18.0 0.00 4.08 60.6 43.9 1,011.8 0.3 SSE | 167 1.4 S | 186 264 -70 0.2 17.1 30.6 3.7
3/2/21 - 2220 44.7 44.2 34 18.1 0.00 4.08 60.6 43.8 1,011.8 0.6 S | 174 1.6 SSW | 206 264 -70 0.2 17.0 31.2 3.7
3/2/21 - 2210 44.7 44.4 34 17.8 0.00 4.08 60.6 43.9 1,011.9 0.5 SSE | 153 1.6 SE | 142 264 -71 0.1 17.0 31.7 3.7
3/2/21 - 2200 44.8 44.1 33 17.1 0.00 4.08 60.6 43.9 1,011.9 1.0 SSW | 200 2.7 SE | 134 264 -69 0.4 17.0 31.8 3.7
3/2/21 - 2150 45.7 44.7 32 17.3 0.00 4.08 60.6 43.9 1,011.9 0.3 SSE | 148 1.3 SSE | 150 264 -70 0.1 16.9 32.2 3.7
3/2/21 - 2140 46.2 45.4 31 17.1 0.00 4.08 60.6 43.9 1,011.9 0.7 SSE | 158 1.3 SSE | 152 264 -70 0.2 16.9 32.7 3.7
3/2/21 - 2130 47.0 46.2 28 15.0 0.00 4.08 60.5 43.9 1,011.9 0.7 S | 186 2.0 SSW | 212 264 -69 0.1 16.9 33.2 3.7
3/2/21 - 2120 46.7 46.4 29 15.8 0.00 4.08 60.5 43.9 1,012.0 0.3 SSE | 163 1.1 S | 176 264 -72 0.1 16.9 33.6 3.7
3/2/21 - 2110 47.4 46.4 28 15.1 0.00 4.08 60.5 43.9 1,011.8 1.2 S | 171 2.9 W | 265 264 -71 0.4 16.9 33.4 3.7
3/2/21 - 2100 48.5 46.7 26 14.5 0.00 4.08 60.4 43.9 1,011.8 1.7 SSW | 198 3.3 W | 260 264 -70 0.2 16.8 33.2 3.7
3/2/21 - 2050 48.5 47.3 26 14.4 0.00 4.08 60.4 43.9 1,011.8 1.1 SSW | 212 2.8 WSW | 245 263 -71 0.4 16.8 33.4 3.7
3/2/21 - 2040 47.7 47.1 27 15.2 0.00 4.08 60.4 44.0 1,011.7 0.7 S | 185 2.0 S | 180 264 -72 0.3 16.7 33.8 3.7
3/2/21 - 2030 48.1 47.4 28 16.2 0.00 4.08 60.4 44.0 1,011.7 0.4 SSE | 162 1.3 SE | 142 264 -73 0.2 16.7 34.2 3.7
3/2/21 - 2020 48.5 47.8 28 16.4 0.00 4.08 60.3 44.0 1,011.6 0.3 SSE | 156 1.1 S | 185 263 -73 0.0 16.6 34.7 3.7
3/2/21 - 2010 49.7 48.3 25 15.0 0.00 4.08 60.3 44.0 1,011.5 0.5 SSE | 157 1.3 S | 175 263 -73 0.2 16.6 35.1 3.7
3/2/21 - 2000 50.1 49.6 24 14.1 0.00 4.08 60.3 44.0 1,011.4 0.5 S | 188 1.6 WSW | 255 263 -73 0.0 16.6 35.7 3.7
3/2/21 - 1950 50.9 49.8 24 14.6 0.00 4.08 60.2 44.0 1,011.3 0.3 S | 178 1.0 SSE | 158 263 -74 0.2 16.6 36.3 3.7
3/2/21 - 1940 50.9 50.2 24 14.6 0.00 4.08 60.2 44.0 1,011.3 0.6 SSE | 163 1.6 S | 184 263 -75 0.1 16.6 37.0 3.7
3/2/21 - 1930 50.7 50.1 24 15.2 0.00 4.08 60.2 44.0 1,011.3 0.4 SE | 144 2.0 SSE | 150 263 -77 0.1 16.5 37.6 3.7
3/2/21 - 1920 51.6 50.4 23 14.9 0.00 4.08 60.2 44.0 1,011.4 0.8 SSE | 161 2.3 SSE | 158 263 -77 0.1 16.5 38.2 3.7
3/2/21 - 1910 52.8 51.4 22 14.2 0.00 4.08 60.2 44.0 1,011.4 0.9 S | 173 2.1 S | 187 263 -78 0.4 16.5 38.9 3.7
3/2/21 - 1900 53.5 52.7 21 14.0 0.00 4.08 60.2 44.0 1,011.5 0.5 SSE | 167 1.2 SE | 140 262 -80 0.2 16.4 39.8 3.7
3/2/21 - 1850 54.4 53.4 20 13.5 0.00 4.08 60.1 44.0 1,011.5 0.8 SSE | 162 1.4 SSE | 154 262 -82 0.1 16.4 40.9 3.7
3/2/21 - 1840 55.0 54.1 19 12.9 0.00 4.08 60.1 44.0 1,011.5 0.8 S | 172 1.8 S | 178 262 -84 0.4 16.4 42.0 3.7
3/2/21 - 1830 55.9 55.0 16 10.5 0.00 4.08 60.0 44.0 1,011.4 0.7 SSE | 162 1.6 S | 178 262 -85 0.2 16.3 43.4 3.7
3/2/21 - 1820 57.5 55.9 15 9.4 0.00 4.08 60.0 44.0 1,011.4 1.1 SSW | 192 2.7 SSW | 208 262 -86 0.5 16.3 45.1 3.7
3/2/21 - 1810 59.5 57.4 14 8.8 0.00 4.08 60.0 44.0 1,011.2 0.7 S | 186 1.8 SW | 217 262 -90 0.3 16.2 47.5 3.7
3/2/21 - 1800 61.2 59.4 12 7.1 0.00 4.08 59.9 44.0 1,011.1 0.9 SSW | 200 2.7 SSE | 160 262 -92 0.9 16.2 50.0 3.7
3/2/21 - 1750 62.7 61.1 10 4.0 0.00 4.08 59.8 44.0 1,011.0 1.2 SSE | 160 3.6 SSW | 209 262 -91 0.5 16.0 53.0 3.7
3/2/21 - 1740 64.4 62.7 9 3.5 0.00 4.08 59.8 44.0 1,010.9 2.0 SW | 224 3.1 SW | 218 261 -90 1.2 15.9 57.1 3.8
3/2/21 - 1730 65.1 64.4 8 3.1 0.00 4.08 59.8 44.0 1,010.9 1.0 S | 188 2.3 E | 90 261 -91 0.4 15.7 60.5 3.8
3/2/21 - 1720 66.2 65.0 9 4.1 0.00 4.08 59.7 43.9 1,010.8 1.7 SE | 124 4.1 ENE | 70 261 -91 0.8 15.6 63.5 3.8
3/2/21 - 1710 67.5 66.2 8 4.1 0.00 4.08 59.7 43.9 1,010.7 2.6 SSE | 148 7.2 SW | 220 261 -68 1.5 15.5 66.4 3.8
3/2/21 - 1700 68.2 67.4 8 4.3 0.00 4.08 59.6 43.8 1,010.6 2.7 SSE | 167 5.7 SE | 145 261 -26 1.7 15.3 68.5 3.8
3/2/21 - 1650 69.1 68.0 8 4.1 0.00 4.08 59.5 43.8 1,010.6 3.6 S | 172 7.8 SSW | 198 261 6 2.6 15.0 70.0 3.8
3/2/21 - 1640 69.6 68.9 8 4.6 0.00 4.08 59.5 43.8 1,010.5 3.6 S | 180 6.9 S | 183 261 34 2.4 14.6 71.1 3.8
3/2/21 - 1630 70.8 69.2 7 3.6 0.00 4.08 59.4 43.8 1,010.5 4.2 SSE | 167 8.7 S | 189 261 62 2.9 14.2 72.1 3.8
3/2/21 - 1620 70.5 69.9 7 3.4 0.00 4.08 59.4 43.7 1,010.6 3.7 SSE | 150 8.0 ESE | 120 261 89 2.4 13.7 72.9 3.8
3/2/21 - 1610 70.7 70.2 7 2.3 0.00 4.08 59.0 43.7 1,010.6 5.5 SSE | 155 9.3 SE | 141 261 109 3.4 13.3 73.9 3.8
3/2/21 - 1600 71.5 70.6 7 3.1 0.00 4.08 59.0 43.7 1,010.7 5.2 SSE | 158 9.5 SSE | 150 261 151 2.7 12.7 75.6 3.8
3/2/21 - 1550 71.9 71.3 7 3.8 0.00 4.08 58.8 43.7 1,010.8 4.0 SSE | 163 8.2 SSW | 201 261 196 3.0 12.3 76.6 3.8
3/2/21 - 1540 72.0 71.5 7 3.5 0.00 4.08 58.7 43.7 1,010.8 4.6 ESE | 116 8.2 ESE | 106 261 260 2.6 11.8 76.5 3.8
3/2/21 - 1530 72.3 71.3 7 5.1 0.00 4.08 58.7 43.7 1,011.0 4.2 SSE | 153 7.2 S | 176 261 219 2.4 11.3 75.8 3.8
3/2/21 - 1520 72.0 71.3 7 5.2 0.00 4.08 58.6 43.6 1,011.1 2.7 ESE | 119 5.7 SE | 129 261 164 1.4 10.9 75.4 3.8
3/2/21 - 1510 72.3 71.3 7 3.9 0.00 4.08 58.5 43.6 1,011.2 4.1 SSE | 160 7.0 SE | 142 261 157 2.8 10.7 75.9 3.8
3/2/21 - 1500 72.2 71.6 7 4.2 0.00 4.08 58.5 43.6 1,011.2 5.1 S | 179 8.8 SSW | 194 261 226 3.9 10.2 76.6 3.8
3/2/21 - 1450 72.9 72.1 7 5.6 0.00 4.08 58.4 43.6 1,011.3 4.6 S | 175 8.9 S | 180 261 244 3.5 9.6 77.6 3.8
3/2/21 - 1440 73.2 72.4 7 6.0 0.00 4.08 58.8 43.5 1,011.4 4.4 SSE | 165 9.0 SSW | 198 260 325 3.2 9.0 78.5 3.8
3/2/21 - 1430 73.1 71.9 7 5.1 0.00 4.08 58.8 43.5 1,011.6 3.2 SE | 145 6.7 SSE | 149 260 340 1.9 8.5 78.6 3.8
3/2/21 - 1420 73.9 72.3 7 4.7 0.00 4.08 58.8 43.5 1,011.7 4.5 SE | 146 10.6 SSE | 151 260 356 2.4 8.2 79.1 3.8
3/2/21 - 1410 73.4 72.5 7 5.2 0.00 4.08 58.7 43.5 1,011.8 3.4 S | 173 7.5 SE | 134 260 372 2.7 7.8 79.2 3.8
3/2/21 - 1400 72.9 72.3 7 5.1 0.00 4.08 58.7 43.4 1,012.0 4.5 SSE | 158 9.5 SSW | 194 260 389 3.0 7.3 79.1 3.7
3/2/21 - 1350 73.4 72.8 7 5.0 0.00 4.08 58.6 43.4 1,012.1 4.6 S | 171 9.6 S | 182 260 402 3.3 6.8 79.1 3.7
3/2/21 - 1340 73.8 72.4 7 5.6 0.00 4.08 58.7 43.4 1,012.1 4.1 SSE | 152 9.5 SE | 140 260 413 2.6 6.3 78.9 3.7
3/2/21 - 1330 74.0 73.1 7 6.6 0.00 4.08 58.7 43.3 1,012.2 3.4 ESE | 116 7.4 SE | 142 260 423 2.1 5.8 78.3 3.7
3/2/21 - 1320 74.2 73.2 6 4.1 0.00 4.08 58.6 43.3 1,012.3 3.9 E | 97 8.5 SSE | 165 260 432 2.0 5.5 78.0 3.8
3/2/21 - 1310 75.0 73.5 7 4.7 0.00 4.08 58.6 43.3 1,012.5 4.1 E | 90 9.8 ENE | 75 260 439 2.2 5.1 78.7 3.7
3/2/21 - 1300 74.9 73.9 7 4.8 0.00 4.08 58.4 43.3 1,012.7 2.5 E | 80 5.3 NE | 40 260 446 1.3 4.8 78.7 3.7
3/2/21 - 1250 74.0 73.0 7 4.6 0.00 4.08 58.4 43.2 1,012.9 3.6 E | 91 7.4 E | 86 260 456 1.8 4.5 79.1 3.7
3/2/21 - 1240 73.8 72.9 7 4.7 0.00 4.08 58.4 43.2 1,013.0 3.7 ESE | 122 8.2 S | 187 260 466 2.1 4.3 78.9 3.7
3/2/21 - 1230 74.0 72.7 7 5.7 0.00 4.08 58.3 43.1 1,013.2 2.7 ENE | 76 5.0 N | 0 260 469 1.7 3.9 78.4 3.7
3/2/21 - 1220 73.2 71.9 7 4.5 0.00 4.08 58.3 43.1 1,013.3 3.4 ESE | 113 6.9 S | 181 260 473 1.8 3.6 79.5 3.7
3/2/21 - 1210 73.1 71.9 7 5.0 0.00 4.08 58.1 43.1 1,013.5 3.1 SE | 126 8.3 E | 97 260 474 2.0 3.3 80.0 3.7
3/2/21 - 1200 73.5 72.3 8 7.6 0.00 4.08 58.2 43.1 1,013.6 2.8 E | 80 5.5 SE | 126 260 472 1.4 3.0 79.7 3.7
3/2/21 - 1150 72.6 71.7 8 8.7 0.00 4.08 58.1 43.1 1,013.8 2.6 ENE | 66 4.7 N | 10 260 467 1.1 2.7 79.6 3.7
3/2/21 - 1140 72.9 72.1 9 9.7 0.00 4.08 58.0 43.1 1,014.1 2.3 NE | 46 4.3 ENE | 58 260 461 0.9 2.6 79.3 3.8
3/2/21 - 1130 72.0 71.3 9 8.7 0.00 4.08 58.1 43.1 1,014.5 2.4 NNE | 21 4.7 NE | 44 261 456 0.9 2.4 78.4 3.8
3/2/21 - 1120 72.0 71.4 9 8.8 0.00 4.08 58.0 43.1 1,014.6 2.7 NE | 47 5.0 NNE | 22 260 451 1.0 2.3 77.7 3.8
3/2/21 - 1110 71.9 70.4 9 8.7 0.00 4.08 58.5 43.1 1,014.8 1.9 NNE | 16 4.1 ENE | 76 260 442 0.8 2.1 76.7 3.8
3/2/21 - 1100 71.0 70.1 9 8.2 0.00 4.08 58.6 43.1 1,015.0 1.9 NNE | 28 4.3 NNE | 23 260 436 0.8 2.0 75.5 3.8
3/2/21 - 1050 70.3 69.3 9 8.1 0.00 4.08 58.6 43.1 1,015.1 2.1 NNE | 30 3.5 NE | 36 260 428 0.9 1.8 74.5 3.8
3/2/21 - 1040 69.6 69.1 9 7.8 0.00 4.08 58.6 43.1 1,015.2 2.3 NNE | 30 4.3 NNE | 29 260 418 0.7 1.7 73.8 3.8
3/2/21 - 1030 69.4 68.9 9 8.3 0.00 4.08 58.6 43.1 1,015.3 2.3 ENE | 58 4.8 SE | 133 260 409 0.9 1.5 73.3 3.7
3/2/21 - 1020 69.0 67.7 10 9.6 0.00 4.08 58.5 43.1 1,015.4 1.7 NE | 44 4.5 N | 0 261 396 0.9 1.4 72.5 3.7
3/2/21 - 1010 67.8 66.9 11 10.2 0.00 4.08 58.6 43.2 1,015.4 2.2 ENE | 62 4.8 ESE | 115 261 383 1.2 1.3 71.5 3.7
3/2/21 - 1000 67.6 66.8 11 10.1 0.00 4.08 58.7 43.2 1,015.4 2.4 ENE | 64 5.0 NNE | 30 260 368 0.8 1.1 70.1 3.7
3/2/21 - 0950 67.6 66.1 11 10.7 0.00 4.08 58.7 43.2 1,015.5 1.8 ENE | 58 3.8 ESE | 111 261 354 0.9 0.9 68.0 3.7
3/2/21 - 0940 66.1 64.4 13 13.7 0.00 4.08 58.7 43.3 1,015.6 0.9 NNE | 29 3.1 N | 4 260 340 0.5 0.8 65.6 3.7
3/2/21 - 0930 64.6 63.5 14 13.9 0.00 4.08 58.8 43.4 1,015.6 1.0 NNE | 16 2.2 NNW | 329 261 324 0.1 0.7 63.5 3.7
3/2/21 - 0920 63.8 62.4 15 15.0 0.00 4.08 58.8 43.3 1,015.6 1.2 NE | 46 2.7 E | 84 261 309 0.7 0.7 61.2 3.7
3/2/21 - 0910 63.0 62.4 18 18.6 0.00 4.08 58.8 43.4 1,015.7 1.2 NE | 42 2.4 NE | 53 261 294 0.1 0.6 58.4 3.7
3/2/21 - 0900 62.6 60.7 23 23.6 0.00 4.08 58.9 43.4 1,015.9 0.4 NE | 42 1.8 ENE | 66 262 281 0.0 0.6 55.2 3.7
3/2/21 - 0850 60.8 59.6 25 23.9 0.00 4.08 59.0 43.4 1,015.9 0.3 NNE | 30 1.9 NE | 46 262 264 0.0 0.6 52.2 3.7
3/2/21 - 0840 59.8 57.0 27 24.1 0.00 4.08 59.0 43.4 1,016.0 0.1 NNE | 25 1.1 NE | 34 262 245 0.0 0.6 49.0 3.7
3/2/21 - 0830 57.0 54.5 29 23.4 0.00 4.08 59.0 43.5 1,016.1 0.2 NNW | 329 1.2 N | 351 262 226 0.1 0.6 46.0 3.7
3/2/21 - 0820 54.6 53.4 29 22.5 0.00 4.08 59.1 43.5 1,016.0 0.5 NNW | 341 2.3 NNE | 20 263 204 0.1 0.5 43.2 3.7
3/2/21 - 0810 53.3 51.7 30 22.6 0.00 4.08 59.2 43.5 1,016.0 0.6 NNW | 347 1.8 NNE | 23 265 184 0.1 0.5 39.8 3.7
3/2/21 - 0800 52.0 50.2 32 21.9 0.00 4.08 59.2 43.5 1,016.0 0.4 N | 0 1.4 NNE | 28 265 163 0.0 0.5 36.8 3.7
3/2/21 - 0750 50.4 50.0 32 21.3 0.00 4.08 59.2 43.5 1,015.9 0.0 NE | 39 0.7 NE | 39 266 64 0.0 0.5 35.0 3.7
3/2/21 - 0740 50.3 45.8 33 20.6 0.00 4.08 59.3 43.5 1,015.8 0.1 ENE | 60 1.1 ENE | 62 265 108 0.1 0.5 32.9 3.7
3/2/21 - 0730 45.7 42.5 39 20.6 0.00 4.08 59.4 43.5 1,015.8 0.1 SE | 125 0.7 E | 81 266 82 0.0 0.5 31.0 3.7
3/2/21 - 0720 42.4 39.3 44 20.4 0.00 4.08 59.4 43.5 1,015.8 0.7 NW | 312 2.4 W | 259 266 5 0.4 0.5 28.8 3.7
3/2/21 - 0710 39.4 38.0 47 20.3 0.00 4.08 59.5 43.5 1,015.7 0.5 S | 180 1.7 SE | 126 266 -31 0.2 0.4 26.5 3.7
3/2/21 - 0700 38.4 36.6 47 19.3 0.00 4.08 59.5 43.5 1,015.7 0.3 S | 175 1.4 SW | 230 266 -38 0.1 0.4 25.5 3.7
3/2/21 - 0650 37.1 36.6 51 20.2 0.00 4.08 59.5 43.6 1,015.5 0.4 S | 176 1.3 SSW | 194 266 -45 0.1 0.4 24.7 3.7
3/2/21 - 0640 36.8 36.5 49 19.4 0.00 4.08 59.6 43.6 1,015.6 0.1 S | 174 0.9 SSW | 196 266 -50 0.0 0.4 24.5 3.7
3/2/21 - 0630 36.7 36.1 51 20.2 0.00 4.08 59.6 43.6 1,015.6 0.3 SSE | 162 0.9 SSE | 168 266 -54 0.0 0.4 24.6 3.7
3/2/21 - 0620 36.8 36.4 49 19.5 0.00 4.08 59.7 43.6 1,015.7 0.1 SSE | 148 0.8 SSE | 148 266 -58 0.0 0.3 25.0 3.7
3/2/21 - 0610 36.8 36.5 49 19.3 0.00 4.08 59.7 43.7 1,015.7 0.2 S | 173 0.9 S | 190 266 -58 0.0 0.3 25.5 3.7
3/2/21 - 0600 37.3 36.5 51 20.4 0.00 4.08 59.8 43.7 1,015.7 0.4 SSW | 196 1.6 SSW | 202 266 -59 0.3 0.3 25.7 3.7
3/2/21 - 0550 37.2 36.6 50 20.1 0.00 4.08 59.8 43.7 1,015.8 0.9 S | 171 2.3 SE | 127 266 -58 0.1 0.3 25.7 3.7
3/2/21 - 0540 37.2 36.7 51 20.5 0.00 4.08 59.9 43.7 1,015.8 0.1 S | 174 1.1 SSE | 162 266 -57 0.0 0.3 25.7 3.7
3/2/21 - 0530 37.6 36.7 50 20.0 0.00 4.08 59.9 43.7 1,015.7 0.5 SE | 142 1.5 SE | 135 266 -56 0.0 0.3 25.6 3.7
3/2/21 - 0520 37.7 37.4 48 19.8 0.00 4.08 59.9 43.7 1,015.7 0.0 N | 0 0.0 WSW | 244 266 -55 0.0 0.3 25.8 3.7
3/2/21 - 0510 37.8 37.4 49 20.2 0.00 4.08 59.9 43.7 1,015.8 0.3 S | 180 1.1 SSE | 164 266 -55 0.1 0.3 26.0 3.7
3/2/21 - 0500 37.7 37.4 49 19.9 0.00 4.08 59.9 43.7 1,015.9 0.1 SSW | 198 0.6 SSW | 199 266 -56 0.0 0.3 26.3 3.7
3/2/21 - 0450 37.7 37.4 49 20.3 0.00 4.08 59.9 43.8 1,016.0 0.3 S | 173 0.8 S | 188 266 -56 0.0 0.3 26.6 3.7
3/2/21 - 0440 37.9 37.5 50 20.5 0.00 4.08 59.9 43.8 1,016.0 0.1 SE | 131 1.2 SE | 125 266 -57 0.1 0.3 26.8 3.7
3/2/21 - 0430 38.3 37.9 49 20.8 0.00 4.08 60.0 43.8 1,016.2 0.0 NNE | 26 0.5 NNE | 19 266 -58 0.0 0.3 27.3 3.7
3/2/21 - 0420 38.4 38.0 50 21.3 0.00 4.08 59.9 43.8 1,016.2 0.0 SW | 233 0.3 SW | 233 266 -57 0.0 0.3 27.8 3.7
3/2/21 - 0410 38.2 37.8 51 21.4 0.00 4.08 59.9 43.8 1,016.1 0.3 SSW | 209 1.2 SW | 229 266 -56 0.1 0.3 27.9 3.7
3/2/21 - 0400 38.4 37.8 50 21.3 0.00 4.08 59.9 43.8 1,016.1 0.8 SE | 130 2.0 SE | 136 266 -55 0.2 0.2 27.6 3.7
3/2/21 - 0350 38.4 38.0 49 20.8 0.00 4.08 59.9 43.9 1,016.2 0.8 S | 169 2.2 SSW | 196 266 -53 0.2 0.2 27.2 3.7
3/2/21 - 0340 38.6 38.0 49 20.7 0.00 4.08 59.9 43.8 1,016.3 0.5 SSE | 150 1.4 SE | 145 266 -53 0.2 0.2 26.8 3.7
3/2/21 - 0330 38.6 38.2 49 20.9 0.00 4.08 59.9 43.9 1,016.4 0.3 SSW | 204 1.1 SW | 217 266 -54 0.0 0.1 26.7 3.7
3/2/21 - 0320 39.1 38.5 49 21.3 0.00 4.08 60.0 43.9 1,016.5 0.1 SSE | 151 0.9 SSE | 157 266 -56 0.0 0.1 26.7 3.7
3/2/21 - 0310 39.4 38.9 46 20.3 0.00 4.08 60.0 43.9 1,016.5 0.2 SSE | 165 0.9 S | 169 266 -56 0.0 0.1 26.7 3.7
3/2/21 - 0300 39.3 38.9 46 19.8 0.00 4.08 60.0 43.9 1,016.6 0.3 SSE | 149 1.0 SE | 146 266 -55 0.0 0.1 26.6 3.7
3/2/21 - 0250 39.7 39.1 43 18.7 0.00 4.08 59.9 43.9 1,016.8 0.1 SSE | 152 0.8 SE | 146 266 -55 0.0 0.1 26.5 3.7
3/2/21 - 0240 39.9 39.3 43 19.0 0.00 4.08 59.9 43.9 1,016.9 0.2 SW | 220 1.0 SW | 222 266 -55 0.0 0.1 26.3 3.7
3/2/21 - 0230 39.6 39.1 45 20.0 0.00 4.08 59.9 43.9 1,017.1 0.0 S | 189 0.6 S | 189 266 -57 0.0 0.1 26.3 3.7
3/2/21 - 0220 40.0 39.3 45 20.3 0.00 4.08 59.8 43.9 1,017.3 0.1 SSE | 152 0.8 SSE | 151 265 -60 0.0 0.1 26.4 3.7
3/2/21 - 0210 40.2 39.8 44 20.0 0.00 4.08 59.9 44.0 1,017.4 0.0 SE | 125 0.5 SE | 124 265 -60 0.0 0.1 26.5 3.7
3/2/21 - 0200 40.3 39.8 45 20.5 0.00 4.08 59.9 44.0 1,017.5 0.5 SSE | 148 1.7 SE | 140 265 -61 0.0 0.1 26.6 3.7
3/2/21 - 0150 40.2 39.9 45 20.6 0.00 4.08 60.0 44.0 1,017.6 0.4 SSE | 163 0.9 SSW | 203 265 -62 0.0 0.1 26.5 3.7
3/2/21 - 0140 40.6 39.9 46 21.0 0.00 4.08 60.0 44.0 1,017.7 0.6 SSE | 164 1.6 SSW | 208 265 -63 0.0 0.1 26.6 3.7
3/2/21 - 0130 41.0 40.6 43 20.2 0.00 4.08 59.9 44.0 1,017.9 0.4 SSE | 162 1.1 SSE | 154 265 -64 0.0 0.1 27.0 3.7
3/2/21 - 0120 41.1 40.8 43 19.9 0.00 4.08 60.0 44.0 1,018.0 0.0 S | 172 0.6 S | 172 265 -64 0.0 0.1 27.4 3.7
3/2/21 - 0110 41.2 40.8 44 20.9 0.00 4.08 60.3 44.0 1,018.1 0.1 SSE | 157 0.9 SSE | 154 265 -63 0.0 0.1 28.1 3.7
3/2/21 - 0100 42.4 41.2 42 20.3 0.00 4.08 60.6 44.0 1,018.3 0.3 SE | 144 1.3 SE | 140 265 -63 0.0 0.1 28.6 3.7
3/2/21 - 0050 42.3 41.8 42 20.4 0.00 4.08 60.7 44.0 1,018.4 0.0 N | 0 0.0 S | 177 265 -64 0.0 0.1 28.9 3.7
3/2/21 - 0040 42.0 41.5 42 20.6 0.00 4.08 60.6 44.0 1,018.4 0.3 S | 176 1.1 S | 170 265 -64 0.0 0.1 29.2 3.7
3/2/21 - 0030 42.9 41.4 41 19.8 0.00 4.08 60.7 44.0 1,018.4 1.9 S | 181 3.4 SSW | 204 265 -64 0.5 0.1 29.0 3.7
3/2/21 - 0020 42.3 41.9 42 20.5 0.00 4.08 60.7 44.1 1,018.4 0.4 S | 174 1.0 S | 184 265 -65 0.1 0.0 29.0 3.7
3/2/21 - 0010 42.9 42.1 41 20.2 0.00 4.08 60.6 44.1 1,018.4 0.2 SSE | 147 0.9 SE | 143 265 -65 0.0 0.0 29.2 3.7
3/2/21 - 0000 43.3 42.7 39 19.9 0.00 4.08 60.5 44.1 1,018.3 0.1 SSE | 168 0.7 S | 182 265 -65 0.0 16.1 29.5 3.7
3/1/21 - 2350 44.6 43.1 38 19.9 0.00 4.08 60.5 44.1 1,018.4 0.0 N | 0 0.0 ESE | 119 265 -65 0.0 16.1 29.9 3.7
3/1/21 - 2340 45.1 44.5 36 19.5 0.00 4.08 60.5 44.2 1,018.6 0.1 SE | 132 0.7 SSE | 147 265 -65 0.0 16.1 30.1 3.7
3/1/21 - 2330 44.8 44.4 37 20.2 0.00 4.08 60.6 44.1 1,018.8 0.3 SSE | 152 1.3 SSE | 147 265 -65 0.0 16.1 30.2 3.7
3/1/21 - 2320 44.7 44.3 38 20.6 0.00 4.08 60.6 44.1 1,018.7 0.3 SE | 144 1.2 SE | 129 265 -66 0.0 16.1 30.4 3.7
3/1/21 - 2310 44.9 44.5 38 20.7 0.00 4.08 60.6 44.2 1,018.7 0.4 SSE | 156 1.1 SSE | 151 265 -65 0.0 16.1 30.6 3.7
3/1/21 - 2300 45.8 44.7 38 20.9 0.00 4.08 60.6 44.2 1,018.7 0.6 SSE | 163 1.2 SSE | 152 265 -66 0.0 16.1 31.1 3.7
3/1/21 - 2250 45.8 45.5 37 20.9 0.00 4.08 60.7 44.2 1,018.8 0.3 SSE | 159 1.1 SSE | 160 265 -66 0.0 16.1 31.7 3.7
3/1/21 - 2240 45.8 45.4 38 21.4 0.00 4.08 60.7 44.2 1,018.9 0.5 SSE | 159 1.1 SSE | 164 265 -66 0.1 16.1 32.3 3.7
3/1/21 - 2230 45.7 45.1 39 21.6 0.00 4.08 60.6 44.2 1,019.0 0.7 SSE | 150 1.3 SE | 144 265 -68 0.2 16.1 32.8 3.7
3/1/21 - 2220 45.7 45.1 38 21.4 0.00 4.08 60.7 44.2 1,019.1 1.0 SSE | 167 1.6 S | 178 265 -69 0.2 16.0 33.0 3.7
3/1/21 - 2210 46.5 45.2 37 21.0 0.00 4.08 60.7 44.2 1,019.2 1.0 SSE | 160 1.9 SE | 140 265 -68 0.4 16.0 33.0 3.7
3/1/21 - 2200 46.7 46.4 34 19.8 0.00 4.08 60.8 44.2 1,019.3 0.5 SSE | 166 1.4 S | 190 264 -68 0.0 16.0 33.4 3.7
3/1/21 - 2150 47.1 46.4 35 20.4 0.00 4.08 60.8 44.2 1,019.4 0.4 S | 184 1.8 SSW | 201 264 -69 0.1 16.0 33.9 3.7
3/1/21 - 2140 47.6 47.0 34 20.4 0.00 4.08 60.8 44.2 1,019.4 0.7 SSE | 152 1.2 SSE | 151 264 -69 0.2 15.9 34.4 3.7
3/1/21 - 2130 48.8 47.4 30 18.1 0.00 4.08 60.8 44.2 1,019.4 0.8 S | 170 1.8 SSE | 147 264 -69 0.2 15.9 34.8 3.7
3/1/21 - 2120 49.5 48.3 29 18.0 0.00 4.08 60.8 44.3 1,019.4 0.4 S | 171 1.3 S | 187 264 -71 0.2 15.9 35.2 3.7
3/1/21 - 2110 50.1 49.3 27 17.4 0.00 4.08 60.7 44.3 1,019.3 0.4 S | 174 1.3 SSW | 196 264 -70 0.0 15.8 35.8 3.7
3/1/21 - 2100 50.6 49.8 27 17.1 0.00 4.08 60.7 44.3 1,019.2 0.6 SSW | 192 1.4 S | 189 264 -71 0.2 15.8 36.6 3.7
3/1/21 - 2050 50.6 50.1 27 17.6 0.00 4.08 60.6 44.3 1,019.1 0.2 S | 171 1.0 SSW | 210 263 -72 0.2 15.8 37.4 3.7
3/1/21 - 2040 50.6 49.8 27 17.8 0.00 4.08 60.6 44.3 1,019.1 0.3 SSW | 206 2.1 SSW | 204 263 -72 0.3 15.8 38.2 3.7
3/1/21 - 2030 51.5 50.4 26 17.8 0.00 4.08 60.5 44.3 1,019.1 0.2 ESE | 107 1.2 ESE | 112 263 -75 0.4 15.7 38.6 3.7
3/1/21 - 2020 51.7 50.7 26 17.3 0.00 4.08 60.4 44.3 1,019.0 0.3 SE | 139 1.6 SE | 129 263 -74 0.2 15.7 38.8 3.7
3/1/21 - 2010 52.8 51.5 25 17.6 0.00 4.08 60.5 44.3 1,019.0 0.2 SSE | 152 1.0 SSE | 156 263 -76 0.1 15.6 39.7 3.7
3/1/21 - 2000 54.0 52.6 24 17.1 0.00 4.08 60.4 44.3 1,018.9 0.6 SSE | 149 1.5 SSE | 159 263 -78 0.0 15.6 40.3 3.7
3/1/21 - 1950 55.5 53.9 22 16.6 0.00 4.08 60.4 44.3 1,018.9 0.8 SSE | 156 1.7 SSE | 152 263 -79 0.0 15.6 41.2 3.7
3/1/21 - 1940 55.8 55.2 21 16.0 0.00 4.08 60.3 44.3 1,019.0 0.2 SSE | 161 0.7 SSE | 156 263 -79 0.0 15.6 42.5 3.7
3/1/21 - 1930 57.0 56.0 20 16.0 0.00 4.08 60.2 44.3 1,019.1 1.1 S | 169 2.3 S | 177 262 -81 0.3 15.6 43.9 3.7
3/1/21 - 1920 57.8 56.8 19 15.8 0.00 4.08 60.2 44.3 1,019.0 1.7 S | 186 2.7 S | 172 263 -83 0.9 15.6 45.1 3.7
3/1/21 - 1910 58.8 57.6 19 15.8 0.00 4.08 60.1 44.3 1,018.9 1.4 S | 178 2.7 SSW | 204 262 -85 0.5 15.4 46.6 3.7
3/1/21 - 1900 59.4 58.5 18 15.6 0.00 4.08 60.1 44.3 1,018.8 1.9 SSW | 208 3.8 WSW | 242 262 -86 0.8 15.3 48.6 3.7
3/1/21 - 1850 60.5 59.4 17 15.5 0.00 4.08 60.0 44.3 1,018.8 2.0 SW | 221 3.8 WSW | 243 262 -89 1.0 15.2 50.8 3.7
3/1/21 - 1840 61.5 60.4 17 15.5 0.00 4.08 59.9 44.3 1,018.8 3.1 WSW | 237 4.9 SW | 225 262 -91 1.8 15.0 51.8 3.7
3/1/21 - 1830 62.0 61.4 16 14.9 0.00 4.08 59.9 44.3 1,018.8 3.4 WSW | 240 4.9 WSW | 252 262 -92 2.0 14.7 51.8 3.7
3/1/21 - 1820 62.8 62.0 14 12.5 0.00 4.08 59.9 44.3 1,018.8 2.2 SW | 236 3.8 WSW | 245 262 -93 1.4 14.4 53.1 3.7
3/1/21 - 1810 63.9 62.8 14 12.4 0.00 4.08 60.2 44.3 1,018.9 2.4 WSW | 252 4.3 SW | 232 262 -95 1.3 14.2 55.5 3.7
3/1/21 - 1800 64.6 63.8 14 14.4 0.00 4.08 60.9 44.2 1,018.8 2.5 W | 272 5.7 WNW | 293 262 -96 2.0 13.9 56.7 3.7
3/1/21 - 1750 65.6 64.4 11 8.4 0.00 4.08 60.7 44.3 1,018.6 1.6 WSW | 246 4.0 WSW | 247 262 -91 0.9 13.6 57.4 3.7
3/1/21 - 1740 66.6 65.3 10 7.2 0.00 4.08 60.6 44.2 1,018.6 2.3 SW | 224 4.3 SSW | 213 262 -90 1.3 13.4 59.8 3.8
3/1/21 - 1730 67.5 66.6 9 7.0 0.00 4.08 60.6 44.2 1,018.5 1.8 WSW | 246 3.2 W | 272 261 -87 1.1 13.2 62.8 3.7
3/1/21 - 1720 68.4 67.4 9 7.9 0.00 4.08 60.6 44.2 1,018.4 1.5 S | 181 3.4 SSW | 194 261 -71 0.9 13.0 66.1 3.8
3/1/21 - 1710 69.6 68.4 9 7.7 0.00 4.08 60.6 44.2 1,018.3 2.3 S | 190 4.6 SSW | 204 261 -56 1.7 12.9 68.7 3.8
3/1/21 - 1700 70.1 69.4 9 7.2 0.00 4.08 60.5 44.1 1,018.3 3.1 SW | 221 5.1 SW | 234 261 -25 1.9 12.6 70.3 3.8
3/1/21 - 1650 70.9 70.0 8 7.3 0.00 4.08 60.5 44.1 1,018.4 3.1 SW | 235 6.5 WSW | 244 261 -1 2.3 12.3 71.6 3.7
3/1/21 - 1640 70.8 70.2 8 7.5 0.00 4.08 60.4 44.1 1,018.4 2.9 SSW | 200 5.1 SSW | 208 261 26 2.1 11.9 72.6 3.7
3/1/21 - 1630 70.7 70.2 8 7.6 0.00 4.08 60.4 44.1 1,018.5 3.7 S | 187 5.5 SSE | 168 261 53 2.6 11.6 73.4 3.8
3/1/21 - 1620 70.6 70.2 9 8.0 0.00 4.08 60.3 44.0 1,018.6 4.0 SSW | 194 6.2 WSW | 237 261 80 3.0 11.1 74.2 3.8
3/1/21 - 1610 70.8 70.2 9 8.7 0.00 4.08 60.2 44.0 1,018.7 4.5 SSW | 205 7.1 SW | 231 261 106 3.2 10.6 75.1 3.8
3/1/21 - 1600 71.3 70.6 9 9.9 0.00 4.08 60.2 44.0 1,018.8 4.2 SSW | 192 7.3 S | 183 261 132 3.0 10.1 76.4 3.8
3/1/21 - 1550 72.6 71.2 9 11.1 0.00 4.08 60.2 43.9 1,018.8 4.9 SSW | 198 7.4 SSW | 205 261 157 3.4 9.6 77.4 3.8
3/1/21 - 1540 72.7 72.3 9 11.7 0.00 4.08 60.0 43.9 1,018.9 3.7 S | 177 6.1 S | 178 261 180 2.7 9.0 78.2 3.8
3/1/21 - 1530 74.8 72.9 7 7.5 0.00 4.08 59.9 43.8 1,019.0 2.8 S | 169 7.5 SE | 146 261 199 2.1 8.6 78.8 3.8
3/1/21 - 1520 75.2 74.3 7 6.9 0.00 4.08 59.9 43.8 1,019.0 1.7 ESE | 112 4.4 ESE | 112 261 223 1.3 8.2 79.2 3.7
3/1/21 - 1510 74.6 73.5 7 5.9 0.00 4.08 60.0 43.8 1,019.1 1.9 SSE | 166 5.1 SSW | 192 261 248 1.5 8.0 79.3 3.7
3/1/21 - 1500 75.0 74.1 7 5.8 0.00 4.08 59.8 43.8 1,019.2 2.7 ESE | 107 5.2 E | 80 260 267 1.5 7.8 79.2 3.8
3/1/21 - 1450 75.1 74.4 6 4.8 0.00 4.08 59.8 43.8 1,019.4 1.8 SE | 128 5.1 E | 90 260 286 1.3 7.5 79.3 3.7
3/1/21 - 1440 75.1 74.3 7 5.5 0.00 4.08 59.7 43.8 1,019.6 2.2 E | 85 5.2 ENE | 71 260 304 1.3 7.3 79.6 3.7
3/1/21 - 1430 74.8 74.4 7 5.1 0.00 4.08 59.6 43.7 1,019.8 1.7 NE | 38 4.9 NE | 41 260 321 0.9 7.1 79.7 3.7
3/1/21 - 1420 74.9 73.7 7 4.7 0.00 4.08 59.6 43.7 1,019.9 2.1 NE | 44 4.6 ENE | 66 260 340 0.9 6.9 79.3 3.8
3/1/21 - 1410 74.5 73.9 7 5.2 0.00 4.08 59.5 43.7 1,020.1 2.4 ENE | 57 6.1 ENE | 58 260 357 1.3 6.8 79.6 3.8
3/1/21 - 1400 74.7 74.0 7 6.3 0.00 4.08 58.5 43.7 1,020.1 2.2 ENE | 64 7.4 ESE | 116 260 372 1.3 6.5 78.4 3.7
3/1/21 - 1350 74.8 74.2 7 6.6 0.00 4.08 58.4 43.7 1,020.3 2.1 NNE | 32 4.6 NNE | 26 260 385 1.5 6.3 78.4 3.7
3/1/21 - 1340 75.1 74.3 7 6.9 0.00 4.08 58.4 43.6 1,020.4 2.2 E | 85 4.6 ENE | 68 260 398 1.1 6.1 78.3 3.7
3/1/21 - 1330 74.6 73.3 7 6.0 0.00 4.08 58.4 43.6 1,020.6 1.5 NE | 39 4.0 SSE | 148 260 409 1.1 5.9 77.9 3.7
3/1/21 - 1320 74.1 72.5 7 6.2 0.00 4.08 58.4 43.6 1,020.7 1.9 NNE | 19 5.9 NE | 56 260 419 1.1 5.7 77.7 3.7
3/1/21 - 1310 73.0 72.3 7 5.5 0.00 4.08 58.4 43.5